createdAt,value
2017-11-08T00:00:51.600Z,8.36
2017-11-08T00:01:51.283Z,8.33
2017-11-08T00:02:51.630Z,8.33
2017-11-08T00:03:51.657Z,8.29
2017-11-08T00:05:06.283Z,8.33
2017-11-08T00:05:51.680Z,8.33
2017-11-08T00:06:51.396Z,8.33
2017-11-08T00:07:51.076Z,8.36
2017-11-08T00:08:51.419Z,8.36
2017-11-08T00:09:51.763Z,8.33
2017-11-08T00:10:51.772Z,8.38
2017-11-08T00:11:51.784Z,8.3
2017-11-08T00:12:51.492Z,8.33
2017-11-08T00:13:51.516Z,8.36
2017-11-08T00:14:51.848Z,8.37
2017-11-08T00:15:51.544Z,8.4
2017-11-08T00:16:51.569Z,8.36
2017-11-08T00:17:51.588Z,8.4
2017-11-08T00:18:51.911Z,8.43
2017-11-08T00:19:51.949Z,8.38
2017-11-08T00:21:06.559Z,8.4
2017-11-08T00:21:51.986Z,8.41
2017-11-08T00:23:51.682Z,8.36
2017-11-08T00:24:51.700Z,8.52
2017-11-08T00:25:52.050Z,8.36
2017-11-08T00:26:51.426Z,8.33
2017-11-08T00:27:52.075Z,8.34
2017-11-08T00:28:52.105Z,8.4
2017-11-08T00:29:51.820Z,8.44
2017-11-08T00:30:52.123Z,8.45
2017-11-08T00:31:52.156Z,8.56
2017-11-08T00:32:52.189Z,8.47
2017-11-08T00:33:51.872Z,8.53
2017-11-08T00:34:52.213Z,8.48
2017-11-08T00:35:51.917Z,8.52
2017-11-08T00:37:06.848Z,8.55
2017-11-08T00:37:52.269Z,8.58
2017-11-08T00:38:52.312Z,8.53
2017-11-08T00:39:52.314Z,8.65
2017-11-08T00:40:51.996Z,8.52
2017-11-08T00:41:52.339Z,8.56
2017-11-08T00:42:52.351Z,8.58
2017-11-08T00:43:52.362Z,8.55
2017-11-08T00:44:52.383Z,8.63
2017-11-08T00:46:52.428Z,8.5
2017-11-08T00:47:52.490Z,8.5
2017-11-08T00:48:52.484Z,8.55
2017-11-08T00:49:52.164Z,8.52
2017-11-08T00:51:07.116Z,8.44
2017-11-08T00:53:52.240Z,8.38
2017-11-08T00:54:52.587Z,8.4
2017-11-08T00:55:52.585Z,8.38
2017-11-08T00:56:52.282Z,8.37
2017-11-08T00:57:52.616Z,8.37
2017-11-08T00:59:06.933Z,8.37
2017-11-08T00:59:52.671Z,8.37
2017-11-08T01:01:52.703Z,8.3
2017-11-08T01:02:52.719Z,8.26
2017-11-08T01:03:52.743Z,8.29
2017-11-08T01:04:52.770Z,8.25
2017-11-08T01:05:52.766Z,8.23
2017-11-08T01:06:52.778Z,8.08
2017-11-08T01:08:52.836Z,8.1
2017-11-08T01:09:52.865Z,8
2017-11-08T01:11:52.247Z,8.07
2017-11-08T01:12:52.909Z,7.9
2017-11-08T01:13:52.592Z,7.92
2017-11-08T01:14:52.957Z,7.85
2017-11-08T01:15:52.322Z,7.86
2017-11-08T01:16:52.657Z,7.82
2017-11-08T01:17:52.675Z,7.72
2017-11-08T01:18:52.691Z,7.82
2017-11-08T01:19:53.029Z,7.69
2017-11-08T01:20:53.042Z,7.79
2017-11-08T01:21:52.741Z,7.6
2017-11-08T01:22:52.434Z,7.63
2017-11-08T01:24:07.717Z,7.6
2017-11-08T01:24:52.801Z,7.64
2017-11-08T01:25:52.825Z,7.64
2017-11-08T01:26:52.825Z,7.71
2017-11-08T01:27:53.166Z,7.58
2017-11-08T01:28:53.199Z,7.69
2017-11-08T01:29:53.219Z,7.6
2017-11-08T01:30:53.233Z,7.63
2017-11-08T01:31:53.250Z,7.55
2017-11-08T01:32:53.252Z,7.61
2017-11-08T01:33:52.948Z,7.49
2017-11-08T01:34:52.965Z,7.5
2017-11-08T01:35:52.990Z,7.52
2017-11-08T01:36:53.336Z,7.49
2017-11-08T01:37:53.340Z,7.45
2017-11-08T01:38:53.363Z,7.35
2017-11-08T01:40:07.998Z,7.4
2017-11-08T01:40:53.399Z,7.45
2017-11-08T01:42:53.439Z,7.4
2017-11-08T01:43:53.449Z,7.39
2017-11-08T01:44:53.461Z,7.37
2017-11-08T01:45:53.159Z,7.4
2017-11-08T01:46:53.866Z,7.35
2017-11-08T01:48:53.554Z,7.34
2017-11-08T01:49:53.237Z,7.37
2017-11-08T01:50:53.576Z,7.35
2017-11-08T01:51:53.599Z,7.37
2017-11-08T01:52:53.610Z,7.24
2017-11-08T01:54:08.245Z,7.28
2017-11-08T01:54:53.318Z,7.28
2017-11-08T01:56:07.950Z,7.25
2017-11-08T01:56:53.685Z,7.25
2017-11-08T01:57:53.702Z,7.35
2017-11-08T01:58:53.743Z,7.32
2017-11-08T01:59:53.738Z,7.25
2017-11-08T02:00:53.429Z,7.24
2017-11-08T02:01:53.774Z,7.28
2017-11-08T02:03:08.409Z,7.28
2017-11-08T02:03:53.479Z,7.37
2017-11-08T02:04:53.501Z,7.32
2017-11-08T02:05:53.839Z,7.24
2017-11-08T02:06:53.856Z,7.28
2017-11-08T02:07:54.223Z,7.27
2017-11-08T02:08:53.889Z,7.25
2017-11-08T02:09:53.600Z,7.2
2017-11-08T02:10:53.935Z,7.2
2017-11-08T02:12:08.547Z,7.07
2017-11-08T02:12:53.645Z,7.13
2017-11-08T02:13:53.983Z,7.13
2017-11-08T02:14:54.017Z,7.1
2017-11-08T02:16:54.047Z,7.12
2017-11-08T02:17:53.738Z,7.06
2017-11-08T02:18:54.086Z,7.09
2017-11-08T02:19:53.774Z,7.03
2017-11-08T02:20:54.111Z,7.09
2017-11-08T02:21:53.792Z,7.07
2017-11-08T02:22:54.168Z,7.13
2017-11-08T02:23:53.833Z,7.13
2017-11-08T02:24:53.849Z,7.13
2017-11-08T02:27:08.812Z,7.07
2017-11-08T02:27:53.590Z,7.17
2017-11-08T02:28:54.254Z,7.06
2017-11-08T02:29:53.931Z,7.09
2017-11-08T02:30:54.287Z,7.15
2017-11-08T02:31:53.980Z,7.07
2017-11-08T02:32:54.006Z,6.94
2017-11-08T02:34:08.934Z,6.94
2017-11-08T02:34:53.716Z,7.02
2017-11-08T02:35:54.377Z,6.91
2017-11-08T02:36:54.392Z,6.95
2017-11-08T02:37:54.089Z,6.98
2017-11-08T02:38:53.782Z,6.95
2017-11-08T02:39:54.107Z,6.94
2017-11-08T02:40:54.467Z,6.94
2017-11-08T02:41:54.480Z,6.95
2017-11-08T02:42:54.501Z,6.94
2017-11-08T02:43:54.510Z,6.95
2017-11-08T02:44:54.513Z,6.95
2017-11-08T02:45:53.897Z,6.94
2017-11-08T02:46:54.244Z,6.94
2017-11-08T02:47:54.258Z,6.92
2017-11-08T02:49:09.199Z,6.94
2017-11-08T02:49:54.602Z,6.92
2017-11-08T02:50:54.311Z,6.97
2017-11-08T02:51:54.327Z,6.91
2017-11-08T02:52:54.015Z,6.98
2017-11-08T02:53:54.684Z,7.02
2017-11-08T02:54:54.695Z,6.92
2017-11-08T02:55:54.719Z,6.88
2017-11-08T02:56:54.735Z,6.95
2017-11-08T02:57:54.737Z,6.97
2017-11-08T02:59:09.375Z,6.97
2017-11-08T02:59:54.795Z,7.02
2017-11-08T03:00:54.817Z,6.97
2017-11-08T03:01:54.494Z,6.98
2017-11-08T03:02:54.824Z,6.99
2017-11-08T03:03:54.840Z,7.09
2017-11-08T03:04:54.559Z,7.1
2017-11-08T03:05:54.556Z,6.98
2017-11-08T03:06:54.909Z,7.06
2017-11-08T03:07:54.294Z,7.03
2017-11-08T03:08:54.941Z,6.99
2017-11-08T03:09:54.626Z,7.02
2017-11-08T03:10:54.657Z,6.98
2017-11-08T03:11:55.001Z,7.03
2017-11-08T03:12:54.686Z,6.97
2017-11-08T03:13:54.694Z,6.97
2017-11-08T03:15:09.647Z,6.99
2017-11-08T03:16:54.767Z,6.95
2017-11-08T03:18:54.795Z,6.92
2017-11-08T03:19:55.142Z,6.92
2017-11-08T03:20:54.831Z,6.97
2017-11-08T03:21:54.854Z,6.92
2017-11-08T03:22:54.861Z,6.89
2017-11-08T03:24:54.892Z,6.88
2017-11-08T03:25:55.275Z,6.88
2017-11-08T03:26:55.242Z,6.94
2017-11-08T03:27:54.632Z,6.98
2017-11-08T03:28:54.955Z,7.06
2017-11-08T03:29:54.981Z,7.13
2017-11-08T03:31:09.927Z,7.2
2017-11-08T03:31:55.353Z,7.23
2017-11-08T03:32:55.363Z,7.28
2017-11-08T03:33:55.378Z,7.28
2017-11-08T03:36:55.111Z,7.35
2017-11-08T03:37:55.428Z,7.34
2017-11-08T03:38:55.463Z,7.42
2017-11-08T03:39:55.467Z,7.48
2017-11-08T03:40:55.168Z,7.52
2017-11-08T03:41:55.178Z,7.49
2017-11-08T03:42:55.522Z,7.58
2017-11-08T03:43:55.559Z,7.55
2017-11-08T03:44:55.245Z,7.6
2017-11-08T03:45:55.591Z,7.6
2017-11-08T03:47:10.210Z,7.58
2017-11-08T03:47:55.300Z,7.67
2017-11-08T03:48:55.311Z,7.57
2017-11-08T03:50:09.940Z,7.68
2017-11-08T03:50:55.360Z,7.67
2017-11-08T03:51:55.686Z,7.6
2017-11-08T03:52:55.370Z,7.63
2017-11-08T03:53:55.406Z,7.69
2017-11-08T03:54:55.751Z,7.74
2017-11-08T03:55:55.436Z,7.68
2017-11-08T03:56:55.789Z,7.72
2017-11-08T03:57:55.793Z,7.72
2017-11-08T03:58:55.814Z,7.69
2017-11-08T03:59:55.516Z,7.63
2017-11-08T04:00:55.835Z,7.68
2017-11-08T04:02:55.880Z,7.72
2017-11-08T04:03:55.590Z,7.8
2017-11-08T04:04:55.919Z,7.8
2017-11-08T04:05:55.923Z,7.82
2017-11-08T04:06:55.643Z,7.74
2017-11-08T04:07:55.976Z,7.85
2017-11-08T04:08:55.995Z,7.79
2017-11-08T04:10:55.700Z,7.85
2017-11-08T04:11:56.051Z,7.89
2017-11-08T04:12:55.746Z,7.85
2017-11-08T04:13:55.763Z,7.85
2017-11-08T04:14:56.083Z,7.86
2017-11-08T04:15:55.784Z,7.87
2017-11-08T04:17:56.158Z,8.02
2017-11-08T04:18:56.150Z,7.89
2017-11-08T04:19:56.177Z,7.9
2017-11-08T04:20:56.230Z,7.9
2017-11-08T04:21:56.214Z,8.01
2017-11-08T04:22:55.919Z,8.01
2017-11-08T04:23:55.927Z,8.05
2017-11-08T04:24:55.948Z,8.04
2017-11-08T04:25:56.285Z,7.97
2017-11-08T04:26:56.302Z,8.05
2017-11-08T04:27:55.998Z,8.04
2017-11-08T04:28:56.339Z,7.98
2017-11-08T04:29:56.029Z,8.01
2017-11-08T04:30:55.735Z,8.04
2017-11-08T04:31:56.394Z,8.1
2017-11-08T04:32:56.084Z,8.01
2017-11-08T04:34:10.709Z,8.02
2017-11-08T04:34:56.441Z,8.01
2017-11-08T04:35:56.153Z,8.04
2017-11-08T04:36:56.489Z,8.01
2017-11-08T04:37:56.171Z,8.08
2017-11-08T04:38:56.512Z,8.05
2017-11-08T04:39:56.532Z,8.1
2017-11-08T04:40:56.537Z,8.07
2017-11-08T04:41:56.571Z,8.07
2017-11-08T04:42:56.586Z,8.07
2017-11-08T04:43:56.613Z,8.12
2017-11-08T04:44:56.293Z,8.15
2017-11-08T04:45:56.645Z,8.11
2017-11-08T04:46:56.335Z,8.25
2017-11-08T04:47:56.680Z,8.1
2017-11-08T04:48:56.692Z,8.19
2017-11-08T04:50:11.309Z,8.16
2017-11-08T04:50:56.405Z,8.11
2017-11-08T04:51:56.753Z,8.22
2017-11-08T04:52:56.760Z,8.12
2017-11-08T04:53:56.778Z,8.2
2017-11-08T04:54:56.156Z,8.23
2017-11-08T04:55:56.808Z,8.25
2017-11-08T04:58:11.454Z,8.25
2017-11-08T04:58:56.857Z,8.22
2017-11-08T04:59:56.877Z,8.19
2017-11-08T05:00:56.905Z,8.18
2017-11-08T05:01:56.595Z,8.19
2017-11-08T05:02:56.945Z,8.26
2017-11-08T05:03:56.963Z,8.22
2017-11-08T05:04:56.962Z,8.2
2017-11-08T05:06:11.593Z,8.16
2017-11-08T05:06:56.689Z,8.22
2017-11-08T05:07:57.024Z,8.2
2017-11-08T05:08:57.036Z,8.2
2017-11-08T05:09:56.745Z,8.25
2017-11-08T05:10:56.767Z,8.23
2017-11-08T05:11:57.103Z,8.19
2017-11-08T05:12:57.123Z,8.2
2017-11-08T05:13:57.129Z,8.2
2017-11-08T05:14:56.830Z,8.23
2017-11-08T05:16:11.775Z,8.2
2017-11-08T05:16:57.188Z,8.2
2017-11-08T05:17:56.891Z,8.29
2017-11-08T05:18:57.213Z,8.2
2017-11-08T05:19:57.256Z,8.26
2017-11-08T05:20:57.259Z,8.29
2017-11-08T05:22:11.885Z,8.26
2017-11-08T05:23:11.909Z,8.26
2017-11-08T05:23:57.330Z,8.3
2017-11-08T05:24:57.317Z,8.26
2017-11-08T05:25:57.361Z,8.23
2017-11-08T05:26:57.045Z,8.25
2017-11-08T05:27:57.398Z,8.25
2017-11-08T05:28:57.410Z,8.2
2017-11-08T05:29:57.423Z,8.08
2017-11-08T05:30:57.452Z,8.2
2017-11-08T05:31:57.457Z,8.15
2017-11-08T05:33:57.182Z,8.08
2017-11-08T05:34:57.500Z,8.04
2017-11-08T05:36:12.138Z,8.07
2017-11-08T05:37:12.157Z,8.05
2017-11-08T05:37:57.245Z,8.07
2017-11-08T05:38:57.599Z,8.1
2017-11-08T05:40:11.893Z,8
2017-11-08T05:40:57.633Z,7.98
2017-11-08T05:41:57.321Z,8.02
2017-11-08T05:42:57.661Z,7.93
2017-11-08T05:44:11.956Z,7.86
2017-11-08T05:44:57.692Z,7.82
2017-11-08T05:45:57.395Z,7.77
2017-11-08T05:47:12.327Z,7.68
2017-11-08T05:47:57.413Z,7.68
2017-11-08T05:48:57.764Z,7.69
2017-11-08T05:49:57.466Z,7.58
2017-11-08T05:50:57.476Z,7.6
2017-11-08T05:51:57.494Z,7.64
2017-11-08T05:52:57.859Z,7.68
2017-11-08T05:53:57.537Z,7.6
2017-11-08T05:54:57.854Z,7.52
2017-11-08T05:55:57.883Z,7.52
2017-11-08T05:56:57.569Z,7.48
2017-11-08T05:57:57.914Z,7.42
2017-11-08T05:58:57.939Z,7.46
2017-11-08T05:59:57.942Z,7.43
2017-11-08T06:00:57.650Z,7.42
2017-11-08T06:02:12.591Z,7.4
2017-11-08T06:02:57.677Z,7.25
2017-11-08T06:03:58.023Z,7.32
2017-11-08T06:04:57.722Z,7.23
2017-11-08T06:05:58.052Z,7.27
2017-11-08T06:06:58.076Z,7.23
2017-11-08T06:07:57.455Z,7.25
2017-11-08T06:09:12.716Z,7.27
2017-11-08T06:10:12.742Z,7.21
2017-11-08T06:10:57.828Z,7.16
2017-11-08T06:11:58.168Z,7.24
2017-11-08T06:12:58.179Z,7.27
2017-11-08T06:13:58.191Z,7.16
2017-11-08T06:14:58.232Z,7.16
2017-11-08T06:15:58.234Z,7.1
2017-11-08T06:16:58.273Z,7.1
2017-11-08T06:17:58.259Z,7.09
2017-11-08T06:18:57.966Z,7.13
2017-11-08T06:19:58.309Z,7.15
2017-11-08T06:20:58.318Z,7.13
2017-11-08T06:21:58.700Z,7.07
2017-11-08T06:22:58.365Z,7.15
2017-11-08T06:23:58.363Z,6.98
2017-11-08T06:25:12.995Z,7.02
2017-11-08T06:25:58.098Z,7.12
2017-11-08T06:26:58.446Z,7.07
2017-11-08T06:27:58.124Z,7.06
2017-11-08T06:28:58.465Z,6.95
2017-11-08T06:29:58.496Z,7.03
2017-11-08T06:30:58.173Z,7.02
2017-11-08T06:31:58.512Z,7.03
2017-11-08T06:32:58.520Z,6.92
2017-11-08T06:33:57.914Z,6.99
2017-11-08T06:34:58.590Z,7.02
2017-11-08T06:36:58.276Z,6.94
2017-11-08T06:38:58.627Z,7.07
2017-11-08T06:39:58.657Z,7.12
2017-11-08T06:41:13.278Z,7.07
2017-11-08T06:41:58.691Z,7.12
2017-11-08T06:42:58.395Z,7.13
2017-11-08T06:43:58.405Z,7.21
2017-11-08T06:44:58.105Z,7.21
2017-11-08T06:45:58.762Z,7.24
2017-11-08T06:46:58.775Z,7.3
2017-11-08T06:47:58.478Z,7.4
2017-11-08T06:48:58.494Z,7.37
2017-11-08T06:49:58.844Z,7.39
2017-11-08T06:50:58.875Z,7.42
2017-11-08T06:51:58.590Z,7.43
2017-11-08T06:52:58.577Z,7.49
2017-11-08T06:53:58.903Z,7.55
2017-11-08T06:54:58.919Z,7.48
2017-11-08T06:55:58.608Z,7.55
2017-11-08T06:57:58.661Z,7.52
2017-11-08T06:58:59.005Z,7.61
2017-11-08T06:59:59.012Z,7.5
2017-11-08T07:00:59.025Z,7.55
2017-11-08T07:01:59.047Z,7.58
2017-11-08T07:02:58.407Z,7.64
2017-11-08T07:03:58.757Z,7.63
2017-11-08T07:04:58.776Z,7.68
2017-11-08T07:05:59.116Z,7.77
2017-11-08T07:06:59.137Z,7.74
2017-11-08T07:07:58.834Z,7.75
2017-11-08T07:08:59.158Z,7.93
2017-11-08T07:09:59.185Z,7.93
2017-11-08T07:10:59.196Z,8
2017-11-08T07:12:13.819Z,8.02
2017-11-08T07:12:58.914Z,8.04
2017-11-08T07:13:59.257Z,8.02
2017-11-08T07:14:59.264Z,8
2017-11-08T07:16:13.896Z,7.87
2017-11-08T07:16:58.974Z,7.86
2017-11-08T07:17:58.998Z,7.82
2017-11-08T07:18:59.342Z,7.89
2017-11-08T07:20:13.641Z,7.86
2017-11-08T07:20:59.404Z,7.86
2017-11-08T07:22:13.995Z,7.85
2017-11-08T07:22:59.423Z,7.87
2017-11-08T07:23:59.105Z,7.82
2017-11-08T07:24:59.462Z,7.86
2017-11-08T07:25:59.139Z,7.8
2017-11-08T07:26:58.851Z,7.79
2017-11-08T07:27:59.508Z,7.79
2017-11-08T07:29:14.137Z,7.86
2017-11-08T07:29:59.224Z,7.87
2017-11-08T07:30:59.556Z,8.01
2017-11-08T07:31:59.257Z,7.98
2017-11-08T07:32:59.602Z,7.95
2017-11-08T07:33:59.635Z,8.04
2017-11-08T07:34:59.626Z,8.07
2017-11-08T07:35:59.329Z,7.98
2017-11-08T07:36:59.661Z,8.02
2017-11-08T07:37:59.697Z,8.01
2017-11-08T07:39:59.093Z,8.11
2017-11-08T07:40:59.742Z,8.07
2017-11-08T07:42:14.380Z,8.19
2017-11-08T07:42:59.484Z,8.22
2017-11-08T07:44:14.417Z,8.2
2017-11-08T07:45:59.839Z,8.26
2017-11-08T07:46:59.852Z,8.25
2017-11-08T07:47:59.890Z,8.38
2017-11-08T07:48:59.895Z,8.36
2017-11-08T07:49:59.929Z,8.38
2017-11-08T07:50:59.942Z,8.36
2017-11-08T07:51:59.958Z,8.38
2017-11-08T07:52:59.978Z,8.4
2017-11-08T07:53:59.996Z,8.33
2017-11-08T07:55:00.055Z,8.45
2017-11-08T07:56:14.643Z,8.38
2017-11-08T07:56:59.736Z,8.45
2017-11-08T07:58:00.057Z,8.59
2017-11-08T07:58:59.777Z,8.45
2017-11-08T08:00:14.716Z,8.41
2017-11-08T08:00:59.818Z,8.4
2017-11-08T08:03:00.169Z,8.44
2017-11-08T08:04:00.178Z,8.45
2017-11-08T08:05:00.198Z,8.55
2017-11-08T08:05:59.903Z,8.41
2017-11-08T08:06:59.922Z,8.41
2017-11-08T08:08:00.270Z,8.56
2017-11-08T08:09:00.266Z,8.56
2017-11-08T08:09:59.977Z,8.41
2017-11-08T08:11:00.303Z,8.53
2017-11-08T08:12:00.016Z,8.48
2017-11-08T08:13:00.351Z,8.52
2017-11-08T08:14:00.390Z,8.56
2017-11-08T08:15:00.388Z,8.52
2017-11-08T08:16:15.013Z,8.52
2017-11-08T08:17:00.439Z,8.61
2017-11-08T08:18:00.472Z,8.59
2017-11-08T08:19:00.473Z,8.56
2017-11-08T08:20:00.181Z,8.56
2017-11-08T08:21:00.504Z,8.56
2017-11-08T08:22:00.526Z,8.56
2017-11-08T08:23:00.544Z,8.61
2017-11-08T08:24:00.245Z,8.61
2017-11-08T08:25:00.261Z,8.56
2017-11-08T08:26:00.598Z,8.68
2017-11-08T08:27:00.326Z,8.73
2017-11-08T08:28:00.305Z,8.68
2017-11-08T08:30:00.678Z,8.73
2017-11-08T08:31:00.695Z,8.73
2017-11-08T08:32:15.329Z,8.77
2017-11-08T08:33:00.763Z,8.79
2017-11-08T08:34:00.753Z,8.89
2017-11-08T08:35:00.780Z,8.87
2017-11-08T08:36:00.791Z,8.8
2017-11-08T08:38:00.509Z,8.98
2017-11-08T08:39:00.867Z,8.98
2017-11-08T08:40:15.470Z,8.99
2017-11-08T08:41:00.560Z,8.95
2017-11-08T08:42:00.906Z,8.94
2017-11-08T08:43:00.277Z,8.96
2017-11-08T08:44:00.942Z,8.94
2017-11-08T08:45:00.640Z,8.95
2017-11-08T08:46:00.648Z,8.89
2017-11-08T08:47:15.610Z,8.84
2017-11-08T08:48:01.017Z,8.81
2017-11-08T08:49:00.713Z,8.84
2017-11-08T08:50:00.733Z,8.74
2017-11-08T08:51:01.073Z,8.76
2017-11-08T08:52:01.110Z,8.71
2017-11-08T08:53:01.108Z,8.65
2017-11-08T08:54:01.144Z,8.73
2017-11-08T08:55:01.163Z,8.61
2017-11-08T08:56:00.858Z,8.61
2017-11-08T08:57:00.874Z,8.68
2017-11-08T08:58:01.209Z,8.58
2017-11-08T08:59:01.232Z,8.55
2017-11-08T09:00:01.272Z,8.56
2017-11-08T09:01:01.268Z,8.58
2017-11-08T09:02:01.306Z,8.53
2017-11-08T09:03:01.298Z,8.52
2017-11-08T09:04:01.002Z,8.55
2017-11-08T09:05:01.356Z,8.52
2017-11-08T09:06:01.380Z,8.53
2017-11-08T09:07:01.065Z,8.58
2017-11-08T09:08:16.009Z,8.61
2017-11-08T09:09:01.415Z,8.58
2017-11-08T09:11:01.478Z,8.59
2017-11-08T09:12:01.165Z,8.65
2017-11-08T09:13:01.523Z,8.71
2017-11-08T09:14:01.503Z,8.58
2017-11-08T09:15:01.552Z,8.73
2017-11-08T09:16:01.553Z,8.68
2017-11-08T09:17:01.265Z,8.7
2017-11-08T09:18:01.606Z,8.63
2017-11-08T09:19:16.212Z,8.7
2017-11-08T09:21:01.660Z,8.86
2017-11-08T09:22:01.677Z,8.81
2017-11-08T09:23:01.677Z,8.84
2017-11-08T09:25:01.724Z,8.91
2017-11-08T09:26:01.414Z,8.77
2017-11-08T09:27:01.751Z,8.86
2017-11-08T09:28:01.461Z,9.01
2017-11-08T09:29:01.816Z,8.95
2017-11-08T09:30:01.827Z,8.99
2017-11-08T09:31:01.842Z,9.13
2017-11-08T09:32:01.540Z,9.04
2017-11-08T09:34:01.575Z,9.1
2017-11-08T09:35:16.525Z,9.14
2017-11-08T09:36:01.603Z,9.29
2017-11-08T09:37:01.937Z,9.28
2017-11-08T09:38:01.970Z,9.33
2017-11-08T09:39:02.008Z,9.47
2017-11-08T09:40:02.003Z,9.46
2017-11-08T09:41:02.038Z,9.6
2017-11-08T09:42:02.053Z,9.51
2017-11-08T09:44:02.095Z,9.43
2017-11-08T09:45:01.778Z,9.56
2017-11-08T09:46:01.809Z,9.58
2017-11-08T09:47:01.819Z,9.56
2017-11-08T09:48:01.832Z,9.6
2017-11-08T09:49:01.535Z,9.54
2017-11-08T09:50:02.202Z,9.61
2017-11-08T09:51:16.820Z,9.43
2017-11-08T09:52:01.946Z,9.4
2017-11-08T09:53:01.929Z,9.56
2017-11-08T09:54:01.632Z,9.58
2017-11-08T09:55:02.305Z,9.57
2017-11-08T09:56:02.330Z,9.57
2017-11-08T09:57:02.332Z,9.72
2017-11-08T09:58:02.371Z,9.78
2017-11-08T09:59:02.409Z,9.74
2017-11-08T10:00:02.400Z,9.79
2017-11-08T10:01:02.424Z,9.79
2017-11-08T10:02:02.446Z,9.84
2017-11-08T10:03:02.468Z,9.86
2017-11-08T10:04:02.485Z,9.78
2017-11-08T10:05:02.165Z,9.81
2017-11-08T10:06:02.523Z,9.74
2017-11-08T10:07:17.141Z,9.69
2017-11-08T10:09:02.319Z,9.79
2017-11-08T10:10:02.503Z,9.78
2017-11-08T10:11:02.612Z,9.74
2017-11-08T10:12:02.637Z,9.68
2017-11-08T10:13:02.725Z,9.61
2017-11-08T10:14:02.362Z,9.64
2017-11-08T10:15:16.982Z,9.64
2017-11-08T10:16:02.392Z,9.69
2017-11-08T10:17:02.747Z,9.72
2017-11-08T10:18:02.750Z,9.69
2017-11-08T10:19:02.770Z,9.81
2017-11-08T10:20:17.397Z,9.74
2017-11-08T10:21:02.795Z,9.69
2017-11-08T10:22:17.425Z,9.68
2017-11-08T10:23:02.524Z,9.83
2017-11-08T10:24:17.152Z,9.74
2017-11-08T10:25:02.905Z,9.76
2017-11-08T10:26:02.901Z,9.86
2017-11-08T10:27:17.524Z,9.71
2017-11-08T10:28:02.957Z,9.66
2017-11-08T10:29:02.959Z,9.6
2017-11-08T10:30:02.668Z,9.57
2017-11-08T10:31:02.672Z,9.66
2017-11-08T10:32:03.005Z,9.71
2017-11-08T10:33:03.035Z,9.68
2017-11-08T10:34:03.047Z,9.72
2017-11-08T10:35:03.090Z,9.79
2017-11-08T10:38:02.814Z,9.86
2017-11-08T10:39:02.841Z,9.75
2017-11-08T10:40:03.174Z,9.72
2017-11-08T10:41:02.868Z,9.84
2017-11-08T10:42:03.184Z,9.75
2017-11-08T10:43:03.220Z,9.91
2017-11-08T10:44:02.901Z,9.84
2017-11-08T10:45:03.240Z,9.86
2017-11-08T10:47:02.974Z,9.84
2017-11-08T10:48:02.994Z,9.9
2017-11-08T10:49:03.005Z,10.05
2017-11-08T10:50:03.340Z,10.14
2017-11-08T10:51:03.365Z,10.05
2017-11-08T10:52:03.056Z,10.07
2017-11-08T10:53:18.000Z,10.17
2017-11-08T10:54:18.011Z,10.12
2017-11-08T10:55:03.432Z,10.01
2017-11-08T10:56:03.129Z,9.91
2017-11-08T10:57:03.134Z,9.99
2017-11-08T10:58:03.499Z,9.94
2017-11-08T10:59:03.520Z,9.84
2017-11-08T11:00:03.207Z,9.89
2017-11-08T11:01:03.237Z,9.9
2017-11-08T11:02:03.245Z,9.91
2017-11-08T11:03:03.612Z,9.91
2017-11-08T11:04:03.631Z,9.93
2017-11-08T11:05:03.626Z,10.05
2017-11-08T11:07:03.679Z,10.05
2017-11-08T11:09:03.721Z,10.11
2017-11-08T11:10:18.339Z,10.14
2017-11-08T11:11:03.741Z,10.09
2017-11-08T11:12:03.444Z,10.12
2017-11-08T11:13:03.451Z,10.15
2017-11-08T11:14:03.827Z,10.23
2017-11-08T11:15:03.835Z,10.18
2017-11-08T11:16:03.853Z,10.23
2017-11-08T11:17:03.547Z,10.23
2017-11-08T11:18:03.901Z,10.26
2017-11-08T11:19:03.571Z,10.17
2017-11-08T11:20:03.925Z,10.23
2017-11-08T11:21:03.618Z,10.29
2017-11-08T11:22:03.977Z,10.2
2017-11-08T11:23:03.336Z,10.2
2017-11-08T11:24:03.675Z,10.22
2017-11-08T11:25:03.695Z,10.2
2017-11-08T11:26:18.651Z,10.27
2017-11-08T11:27:04.417Z,10.25
2017-11-08T11:28:18.698Z,10.18
2017-11-08T11:29:03.785Z,10.22
2017-11-08T11:30:04.114Z,10.17
2017-11-08T11:31:03.828Z,10.12
2017-11-08T11:32:03.827Z,10.05
2017-11-08T11:33:04.179Z,10.05
2017-11-08T11:35:04.242Z,10.02
2017-11-08T11:37:03.937Z,9.94
2017-11-08T11:38:03.955Z,9.93
2017-11-08T11:39:04.294Z,9.81
2017-11-08T11:40:18.926Z,9.79
2017-11-08T11:41:04.349Z,9.74
2017-11-08T11:43:04.390Z,9.87
2017-11-08T11:44:04.393Z,9.81
2017-11-08T11:45:03.767Z,9.84
2017-11-08T11:46:04.424Z,9.74
2017-11-08T11:48:04.165Z,9.76
2017-11-08T11:49:04.176Z,9.76
2017-11-08T11:50:04.504Z,9.84
2017-11-08T11:51:04.207Z,9.86
2017-11-08T11:52:04.557Z,9.9
2017-11-08T11:53:04.253Z,9.94
2017-11-08T11:54:04.272Z,9.99
2017-11-08T11:55:04.290Z,9.96
2017-11-08T11:57:18.934Z,9.99
2017-11-08T11:58:04.023Z,10.05
2017-11-08T11:59:04.699Z,10.12
2017-11-08T12:00:18.995Z,10.04
2017-11-08T12:01:04.405Z,10.09
2017-11-08T12:02:04.759Z,10.22
2017-11-08T12:03:04.125Z,10.04
2017-11-08T12:04:04.458Z,10.22
2017-11-08T12:05:04.496Z,10.08
2017-11-08T12:06:04.515Z,10.12
2017-11-08T12:07:04.862Z,10.05
2017-11-08T12:09:04.898Z,10.09
2017-11-08T12:10:04.596Z,10.12
2017-11-08T12:11:04.944Z,10.05
2017-11-08T12:12:19.552Z,10.11
2017-11-08T12:13:04.952Z,10.17
2017-11-08T12:14:05.006Z,10.14
2017-11-08T12:15:05.019Z,10.17
2017-11-08T12:16:04.697Z,10.12
2017-11-08T12:17:04.725Z,10.02
2017-11-08T12:19:04.750Z,10.01
2017-11-08T12:20:05.099Z,10.09
2017-11-08T12:21:05.119Z,9.99
2017-11-08T12:22:19.417Z,10.01
2017-11-08T12:23:04.849Z,9.94
2017-11-08T12:24:04.851Z,10.02
2017-11-08T12:25:05.209Z,9.94
2017-11-08T12:26:05.235Z,9.84
2017-11-08T12:27:05.258Z,9.96
2017-11-08T12:28:05.272Z,9.94
2017-11-08T12:29:19.890Z,9.99
2017-11-08T12:30:04.995Z,9.93
2017-11-08T12:31:05.320Z,9.94
2017-11-08T12:32:05.350Z,9.96
2017-11-08T12:33:05.376Z,9.9
2017-11-08T12:34:05.380Z,9.9
2017-11-08T12:35:05.067Z,9.93
2017-11-08T12:36:05.414Z,9.86
2017-11-08T12:37:05.116Z,9.84
2017-11-08T12:38:05.460Z,9.79
2017-11-08T12:39:04.826Z,9.75
2017-11-08T12:40:04.849Z,9.84
2017-11-08T12:41:05.197Z,9.78
2017-11-08T12:42:05.209Z,9.78
2017-11-08T12:43:20.502Z,9.9
2017-11-08T12:44:05.241Z,9.78
2017-11-08T12:45:20.197Z,9.9
2017-11-08T12:46:05.280Z,9.91
2017-11-08T12:47:20.248Z,9.72
2017-11-08T12:48:05.640Z,9.83
2017-11-08T12:49:05.681Z,9.83
2017-11-08T12:50:05.680Z,9.84
2017-11-08T12:52:05.739Z,9.83
2017-11-08T12:53:05.103Z,9.9
2017-11-08T12:54:05.435Z,9.99
2017-11-08T12:55:05.787Z,9.99
2017-11-08T12:56:05.493Z,10.01
2017-11-08T12:57:05.811Z,9.97
2017-11-08T12:58:05.865Z,9.9
2017-11-08T12:59:05.847Z,9.93
2017-11-08T13:00:05.562Z,10.01
2017-11-08T13:01:20.493Z,10.12
2017-11-08T13:02:05.584Z,10.05
2017-11-08T13:03:05.924Z,10.11
2017-11-08T13:04:05.958Z,10.22
2017-11-08T13:07:06.021Z,10.2
2017-11-08T13:09:06.046Z,10.23
2017-11-08T13:10:05.735Z,10.2
2017-11-08T13:11:06.105Z,10.2
2017-11-08T13:12:06.116Z,10.2
2017-11-08T13:13:05.810Z,10.32
2017-11-08T13:14:05.821Z,10.32
2017-11-08T13:16:06.185Z,10.38
2017-11-08T13:17:20.810Z,10.34
2017-11-08T13:18:05.904Z,10.34
2017-11-08T13:19:06.241Z,10.33
2017-11-08T13:20:06.260Z,10.33
2017-11-08T13:21:05.963Z,10.38
2017-11-08T13:23:05.992Z,10.29
2017-11-08T13:24:06.335Z,10.27
2017-11-08T13:26:06.077Z,10.25
2017-11-08T13:27:06.077Z,10.27
2017-11-08T13:28:06.412Z,10.34
2017-11-08T13:29:06.455Z,10.27
2017-11-08T13:30:06.466Z,10.25
2017-11-08T13:32:21.111Z,10.32
2017-11-08T13:33:21.131Z,10.26
2017-11-08T13:34:06.214Z,10.3
2017-11-08T13:35:06.556Z,10.36
2017-11-08T13:36:06.578Z,10.33
2017-11-08T13:37:06.606Z,10.26
2017-11-08T13:38:05.975Z,10.22
2017-11-08T13:40:06.653Z,10.25
2017-11-08T13:41:06.366Z,10.2
2017-11-08T13:42:06.389Z,10.15
2017-11-08T13:43:06.711Z,10.04
2017-11-08T13:44:06.760Z,10.05
2017-11-08T13:45:06.425Z,10.01
2017-11-08T13:46:06.446Z,10.07
2017-11-08T13:47:06.471Z,9.9
2017-11-08T13:48:06.827Z,9.97
2017-11-08T13:49:06.829Z,9.96
2017-11-08T13:50:06.542Z,9.99
2017-11-08T13:51:06.883Z,10.01
2017-11-08T13:52:06.898Z,10.18
2017-11-08T13:53:21.514Z,10.09
2017-11-08T13:55:06.967Z,10.01
2017-11-08T13:56:06.658Z,9.94
2017-11-08T13:57:07.020Z,9.91
2017-11-08T13:58:06.690Z,9.81
2017-11-08T13:59:07.042Z,9.75
2017-11-08T14:00:06.407Z,9.87
2017-11-08T14:01:06.735Z,9.86
2017-11-08T14:02:07.084Z,9.69
2017-11-08T14:03:06.778Z,9.72
2017-11-08T14:04:21.737Z,9.64
2017-11-08T14:05:06.829Z,9.61
2017-11-08T14:06:07.177Z,9.64
2017-11-08T14:07:06.849Z,9.58
2017-11-08T14:08:06.889Z,9.64
2017-11-08T14:09:07.216Z,9.66
2017-11-08T14:10:07.240Z,9.58
2017-11-08T14:11:06.944Z,9.58
2017-11-08T14:13:06.987Z,9.66
2017-11-08T14:14:06.997Z,9.57
2017-11-08T14:15:07.009Z,9.58
2017-11-08T14:16:06.710Z,9.65
2017-11-08T14:17:07.377Z,9.57